Time;durP1;ratioP1;P1;durP2;ratioP2;P2;SDS_P1;SDS_P2;PMS_P1;PMS_P2;Temp;Humidity;BMP_temperature;BMP_pressure;BME280_temperature;BME280_humidity;BME280_pressure;Samples;Min_cycle;Max_cycle;Signal;HPM_P1;HPM_P2
2023/04/06 00:01:03;;;;;;;2.38;1.50;;;;;;;;;;5042826;28;20638;-67
2023/04/06 00:03:29;;;;;;;2.00;1.42;;;;;;;;;;5042033;28;20052;-66
2023/04/06 00:05:55;;;;;;;1.65;1.17;;;;;;;;;;5044162;28;20047;-66
2023/04/06 00:08:23;;;;;;;1.48;1.27;;;;;;;;;;5043617;28;20132;-66
2023/04/06 00:10:49;;;;;;;1.70;1.23;;;;;;;;;;5044736;28;20106;-66
2023/04/06 00:13:15;;;;;;;1.25;1.00;;;;;;;;;;5043749;28;20037;-66
2023/04/06 00:15:41;;;;;;;1.00;1.00;;;;;;;;;;5043475;28;20037;-66
2023/04/06 00:18:07;;;;;;;1.38;1.10;;;;;;;;;;5043343;28;20501;-66
2023/04/06 00:20:33;;;;;;;1.05;0.95;;;;;;;;;;5043574;28;20041;-66
2023/04/06 00:22:59;;;;;;;1.63;0.80;;;;;;;;;;5039218;28;20048;-66
2023/04/06 00:25:25;;;;;;;1.25;1.00;;;;;;;;;;5044083;28;20041;-66
2023/04/06 00:27:51;;;;;;;1.45;1.13;;;;;;;;;;5043516;28;20079;-66
2023/04/06 00:30:18;;;;;;;1.17;1.00;;;;;;;;;;5043542;28;20589;-67
2023/04/06 00:32:44;;;;;;;1.63;1.38;;;;;;;;;;5041619;28;20049;-67
2023/04/06 00:35:10;;;;;;;1.27;1.13;;;;;;;;;;5042501;28;20484;-67
2023/04/06 00:37:36;;;;;;;1.95;1.40;;;;;;;;;;5043685;28;20041;-67
2023/04/06 00:40:02;;;;;;;1.48;0.90;;;;;;;;;;5043535;28;20604;-67
2023/04/06 00:42:29;;;;;;;1.30;1.20;;;;;;;;;;5042917;28;20097;-67
2023/04/06 00:44:56;;;;;;;1.67;1.30;;;;;;;;;;5043774;28;20059;-67
2023/04/06 00:47:22;;;;;;;1.67;1.08;;;;;;;;;;5043852;28;20041;-67
2023/04/06 00:49:49;;;;;;;1.48;0.90;;;;;;;;;;5043147;28;20145;-67
2023/04/06 00:52:15;;;;;;;1.48;1.00;;;;;;;;;;5042972;28;20409;-67
2023/04/06 00:54:41;;;;;;;1.15;1.05;;;;;;;;;;5043246;28;20041;-67
2023/04/06 00:57:07;;;;;;;2.05;1.10;;;;;;;;;;5039829;28;20136;-66
2023/04/06 00:59:33;;;;;;;1.13;1.02;;;;;;;;;;5042751;28;20040;-67
2023/04/06 01:02:00;;;;;;;1.10;1.00;;;;;;;;;;5043066;28;20056;-66
2023/04/06 01:04:27;;;;;;;1.70;1.20;;;;;;;;;;5042606;28;20146;-66
2023/04/06 01:06:53;;;;;;;2.10;1.20;;;;;;;;;;5043117;28;20486;-66
2023/04/06 01:09:19;;;;;;;1.35;1.25;;;;;;;;;;5047785;28;20048;-66
2023/04/06 01:11:45;;;;;;;1.40;1.20;;;;;;;;;;5046713;28;20052;-67
2023/04/06 01:14:11;;;;;;;0.95;0.90;;;;;;;;;;5045782;28;20083;-67
2023/04/06 01:16:37;;;;;;;1.58;1.48;;;;;;;;;;5047024;28;20604;-67
2023/04/06 01:19:09;;;;;;;2.28;1.65;;;;;;;;;;5046634;28;20064;-67
2023/04/06 01:21:36;;;;;;;1.98;1.63;;;;;;;;;;5046954;28;20045;-67
2023/04/06 01:24:02;;;;;;;2.50;1.98;;;;;;;;;;5046395;28;20056;-66
2023/04/06 01:26:29;;;;;;;1.58;1.48;;;;;;;;;;5047004;28;20771;-67
2023/04/06 01:28:55;;;;;;;1.90;1.52;;;;;;;;;;5047285;28;20091;-66
2023/04/06 01:31:21;;;;;;;1.55;1.30;;;;;;;;;;5046408;28;20057;-66
2023/04/06 01:33:47;;;;;;;2.30;1.23;;;;;;;;;;5046578;28;20124;-66
2023/04/06 01:36:14;;;;;;;1.27;1.17;;;;;;;;;;5043217;28;20136;-67
2023/04/06 01:38:41;;;;;;;2.13;0.88;;;;;;;;;;5045966;28;20120;-66
2023/04/06 01:41:07;;;;;;;1.63;1.52;;;;;;;;;;5046463;28;20049;-66
2023/04/06 01:43:33;;;;;;;1.38;1.13;;;;;;;;;;5046415;28;20037;-67
2023/04/06 01:45:59;;;;;;;1.27;1.00;;;;;;;;;;5044406;28;20655;-67
2023/04/06 01:48:25;;;;;;;1.90;1.30;;;;;;;;;;5046899;28;20045;-66
2023/04/06 01:50:51;;;;;;;1.10;1.00;;;;;;;;;;5047430;28;20077;-66
2023/04/06 01:53:17;;;;;;;1.60;1.50;;;;;;;;;;5045549;28;20134;-67
2023/04/06 01:55:44;;;;;;;1.50;1.30;;;;;;;;;;5046629;28;20167;-66
2023/04/06 01:58:10;;;;;;;1.30;1.20;;;;;;;;;;5046260;28;20049;-66
2023/04/06 02:00:36;;;;;;;1.23;1.13;;;;;;;;;;5045867;28;20045;-67
2023/04/06 02:03:02;;;;;;;1.98;1.60;;;;;;;;;;5045459;28;20051;-66
2023/04/06 02:05:30;;;;;;;2.72;1.80;;;;;;;;;;5044832;28;20495;-67
2023/04/06 02:07:56;;;;;;;1.75;1.42;;;;;;;;;;5044208;28;20483;-67
2023/04/06 02:10:22;;;;;;;1.60;1.30;;;;;;;;;;5046672;28;20072;-67
2023/04/06 02:12:48;;;;;;;2.60;1.25;;;;;;;;;;5046889;28;20036;-66
2023/04/06 02:15:15;;;;;;;2.00;1.73;;;;;;;;;;5045179;28;20056;-67
2023/04/06 02:17:41;;;;;;;1.60;1.10;;;;;;;;;;5046245;28;20090;-67
2023/04/06 02:20:07;;;;;;;1.85;1.33;;;;;;;;;;5045417;28;20388;-67
2023/04/06 02:22:34;;;;;;;2.95;1.70;;;;;;;;;;5045317;28;20048;-67
2023/04/06 02:25:00;;;;;;;2.78;2.05;;;;;;;;;;5045743;28;20482;-67
2023/04/06 02:27:26;;;;;;;2.00;1.80;;;;;;;;;;5044272;28;20075;-67
2023/04/06 02:29:52;;;;;;;2.05;1.85;;;;;;;;;;5046603;28;20410;-66
2023/04/06 02:32:18;;;;;;;2.47;2.03;;;;;;;;;;5046060;28;20550;-67
2023/04/06 02:34:44;;;;;;;2.10;1.90;;;;;;;;;;5044773;28;20049;-67
2023/04/06 02:37:10;;;;;;;2.00;1.80;;;;;;;;;;5046546;28;20071;-67
2023/04/06 02:39:36;;;;;;;1.58;1.48;;;;;;;;;;5045712;28;20040;-67
2023/04/06 02:42:02;;;;;;;1.30;1.20;;;;;;;;;;5045185;28;20048;-66
2023/04/06 02:44:29;;;;;;;1.13;0.85;;;;;;;;;;5044733;28;20045;-66
2023/04/06 02:46:55;;;;;;;1.90;1.27;;;;;;;;;;5045319;28;20041;-67
2023/04/06 02:49:21;;;;;;;1.50;1.17;;;;;;;;;;5044654;28;20056;-67
2023/04/06 02:51:48;;;;;;;1.58;1.35;;;;;;;;;;5045430;28;20482;-66
2023/04/06 02:54:14;;;;;;;1.20;1.10;;;;;;;;;;5044874;28;20435;-66
2023/04/06 02:56:40;;;;;;;1.38;1.25;;;;;;;;;;5044948;28;20067;-66
2023/04/06 02:59:06;;;;;;;1.75;1.65;;;;;;;;;;5044966;28;20068;-67
2023/04/06 03:01:32;;;;;;;1.27;1.17;;;;;;;;;;5045235;28;20057;-66
2023/04/06 03:03:58;;;;;;;2.05;1.55;;;;;;;;;;5042912;28;20533;-66
2023/04/06 03:06:24;;;;;;;2.00;1.30;;;;;;;;;;5045154;28;20585;-66
2023/04/06 03:08:50;;;;;;;1.55;1.25;;;;;;;;;;5044650;28;20072;-66
2023/04/06 03:11:16;;;;;;;1.40;1.30;;;;;;;;;;5041506;28;20083;-67
2023/04/06 03:13:42;;;;;;;1.10;1.00;;;;;;;;;;5044691;28;20457;-66
2023/04/06 03:16:08;;;;;;;2.08;1.88;;;;;;;;;;5044778;28;20041;-66
2023/04/06 03:18:34;;;;;;;2.15;1.58;;;;;;;;;;5044069;28;20037;-66
2023/04/06 03:21:00;;;;;;;2.17;1.73;;;;;;;;;;5044907;28;20479;-67
2023/04/06 03:23:26;;;;;;;2.08;1.80;;;;;;;;;;5043292;28;20445;-67
2023/04/06 03:25:52;;;;;;;1.70;1.60;;;;;;;;;;5044617;28;20095;-66
2023/04/06 03:28:18;;;;;;;2.33;1.42;;;;;;;;;;5044970;28;20037;-66
2023/04/06 03:30:45;;;;;;;2.55;2.35;;;;;;;;;;5043341;28;20074;-66
2023/04/06 03:33:11;;;;;;;2.85;2.55;;;;;;;;;;5041861;28;20141;-67
2023/04/06 03:35:37;;;;;;;3.30;2.55;;;;;;;;;;5044156;28;20083;-66
2023/04/06 03:38:04;;;;;;;2.38;2.17;;;;;;;;;;5043751;28;20151;-67
2023/04/06 03:40:31;;;;;;;2.40;2.05;;;;;;;;;;5044563;28;20045;-66
2023/04/06 03:42:57;;;;;;;1.42;1.33;;;;;;;;;;5044528;28;20048;-66
2023/04/06 03:45:23;;;;;;;1.90;1.70;;;;;;;;;;5044132;28;20075;-66
2023/04/06 03:47:49;;;;;;;2.45;1.98;;;;;;;;;;5044867;28;20068;-66
2023/04/06 03:50:15;;;;;;;1.83;1.63;;;;;;;;;;5044770;28;20036;-66
2023/04/06 03:52:41;;;;;;;2.90;1.60;;;;;;;;;;5043667;28;20048;-66
2023/04/06 03:55:07;;;;;;;2.10;1.90;;;;;;;;;;5042900;28;20048;-66
2023/04/06 03:57:34;;;;;;;4.22;2.00;;;;;;;;;;5043850;28;20144;-66
2023/04/06 04:00:00;;;;;;;2.35;2.15;;;;;;;;;;5044025;28;20037;-66
2023/04/06 04:02:26;;;;;;;1.52;1.42;;;;;;;;;;5044382;28;20049;-67
2023/04/06 04:04:52;;;;;;;3.03;1.80;;;;;;;;;;5044665;28;20115;-66
2023/04/06 04:07:18;;;;;;;1.70;1.60;;;;;;;;;;5043430;28;20084;-67
2023/04/06 04:09:44;;;;;;;2.35;1.92;;;;;;;;;;5041276;28;20052;-66
2023/04/06 04:12:10;;;;;;;3.30;1.75;;;;;;;;;;5044261;28;20069;-67
2023/04/06 04:14:36;;;;;;;3.03;2.20;;;;;;;;;;5042824;28;20470;-67
2023/04/06 04:17:02;;;;;;;2.65;2.10;;;;;;;;;;5043676;28;20047;-66
2023/04/06 04:19:28;;;;;;;3.85;2.58;;;;;;;;;;5044037;28;20063;-67
2023/04/06 04:21:54;;;;;;;2.33;1.77;;;;;;;;;;5042998;28;20120;-67
2023/04/06 04:24:20;;;;;;;2.83;2.45;;;;;;;;;;5043945;28;20044;-66
2023/04/06 04:26:46;;;;;;;1.95;1.73;;;;;;;;;;5042871;28;20070;-66
2023/04/06 04:29:12;;;;;;;1.75;1.65;;;;;;;;;;5043399;28;20041;-66
2023/04/06 04:31:38;;;;;;;2.25;2.05;;;;;;;;;;5043322;28;20061;-66
2023/04/06 04:34:06;;;;;;;2.40;1.80;;;;;;;;;;5042954;28;20080;-66
2023/04/06 04:36:32;;;;;;;2.50;2.00;;;;;;;;;;5041547;28;20063;-67
2023/04/06 04:39:00;;;;;;;1.60;1.50;;;;;;;;;;5043463;28;20124;-66
2023/04/06 04:41:26;;;;;;;1.55;1.23;;;;;;;;;;5042623;28;20063;-66
2023/04/06 04:43:52;;;;;;;1.52;1.33;;;;;;;;;;5043206;28;20049;-66
2023/04/06 04:46:18;;;;;;;1.63;1.52;;;;;;;;;;5040718;28;20048;-66
2023/04/06 04:48:44;;;;;;;1.83;1.38;;;;;;;;;;5042934;28;20041;-67
2023/04/06 04:51:10;;;;;;;2.10;1.48;;;;;;;;;;5042949;28;20906;-66
2023/04/06 04:53:36;;;;;;;1.70;1.60;;;;;;;;;;5042689;28;20095;-66
2023/04/06 04:56:02;;;;;;;4.22;1.98;;;;;;;;;;5042732;28;20048;-66
2023/04/06 04:58:28;;;;;;;2.05;1.75;;;;;;;;;;5043224;28;20041;-67
2023/04/06 05:00:54;;;;;;;1.65;1.55;;;;;;;;;;5041802;28;20396;-66
2023/04/06 05:03:22;;;;;;;2.00;1.80;;;;;;;;;;5040099;28;20158;-66
2023/04/06 05:05:48;;;;;;;1.77;1.67;;;;;;;;;;5042913;28;20101;-66
2023/04/06 05:08:14;;;;;;;1.40;1.20;;;;;;;;;;5041729;28;20048;-66
2023/04/06 05:10:40;;;;;;;1.52;1.40;;;;;;;;;;5041185;28;20813;-66
2023/04/06 05:13:06;;;;;;;1.60;1.50;;;;;;;;;;5043170;28;20049;-66
2023/04/06 05:15:34;;;;;;;3.33;2.60;;;;;;;;;;5041642;28;20194;-67
2023/04/06 05:18:01;;;;;;;2.40;2.20;;;;;;;;;;5040795;28;20045;-66
2023/04/06 05:20:27;;;;;;;2.25;1.85;;;;;;;;;;5041713;28;20045;-67
2023/04/06 05:22:53;;;;;;;2.20;2.00;;;;;;;;;;5038561;28;20419;-66
2023/04/06 05:25:20;;;;;;;2.20;2.00;;;;;;;;;;5042648;28;20045;-67
2023/04/06 05:27:46;;;;;;;3.03;2.22;;;;;;;;;;5042940;28;20045;-66
2023/04/06 05:30:12;;;;;;;4.03;2.55;;;;;;;;;;5042761;28;20049;-66
2023/04/06 05:32:38;;;;;;;3.30;2.95;;;;;;;;;;5041915;28;20053;-67
2023/04/06 05:35:04;;;;;;;4.57;2.63;;;;;;;;;;5042561;28;20041;-67
2023/04/06 05:37:30;;;;;;;3.22;2.92;;;;;;;;;;5041201;28;20104;-66
2023/04/06 05:39:56;;;;;;;3.38;3.08;;;;;;;;;;5042969;28;20137;-67
2023/04/06 05:42:23;;;;;;;4.03;3.53;;;;;;;;;;5039741;28;20121;-66
2023/04/06 05:44:49;;;;;;;4.18;3.53;;;;;;;;;;5042123;28;20045;-66
2023/04/06 05:47:15;;;;;;;3.00;2.75;;;;;;;;;;5041075;28;20049;-66
2023/04/06 05:49:42;;;;;;;3.33;2.92;;;;;;;;;;5042014;28;20168;-67
2023/04/06 05:52:10;;;;;;;3.40;2.95;;;;;;;;;;5039286;28;20049;-67
2023/04/06 05:54:36;;;;;;;3.40;3.10;;;;;;;;;;5043647;28;20342;-66
2023/04/06 05:57:03;;;;;;;4.97;3.10;;;;;;;;;;5046238;28;20060;-67
2023/04/06 05:59:30;;;;;;;3.05;2.67;;;;;;;;;;5044578;28;20060;-66
2023/04/06 06:01:56;;;;;;;4.22;3.47;;;;;;;;;;5046558;28;20048;-67
2023/04/06 06:04:22;;;;;;;3.78;3.38;;;;;;;;;;5046654;28;20207;-66
2023/04/06 06:06:48;;;;;;;4.05;3.60;;;;;;;;;;5045616;28;20059;-67
2023/04/06 06:09:14;;;;;;;3.88;3.47;;;;;;;;;;5046639;28;20053;-66
2023/04/06 06:11:40;;;;;;;3.33;2.92;;;;;;;;;;5044637;28;20091;-66
2023/04/06 06:14:06;;;;;;;3.95;3.35;;;;;;;;;;5045312;28;20037;-66
2023/04/06 06:16:32;;;;;;;4.80;3.50;;;;;;;;;;5045900;28;20099;-67
2023/04/06 06:18:58;;;;;;;4.70;3.78;;;;;;;;;;5046155;28;20125;-66
2023/04/06 06:21:25;;;;;;;5.10;3.50;;;;;;;;;;5045535;28;20041;-67
2023/04/06 06:23:53;;;;;;;6.57;3.97;;;;;;;;;;5044387;28;20055;-66
2023/04/06 06:26:20;;;;;;;5.90;3.83;;;;;;;;;;5046078;28;20069;-67
2023/04/06 06:28:46;;;;;;;4.60;3.70;;;;;;;;;;5044764;28;20516;-66
2023/04/06 06:31:12;;;;;;;3.63;3.08;;;;;;;;;;5045573;28;20056;-67
2023/04/06 06:33:38;;;;;;;3.97;3.58;;;;;;;;;;5044445;28;20040;-67
2023/04/06 06:36:04;;;;;;;4.40;3.42;;;;;;;;;;5042769;28;20401;-67
2023/04/06 06:38:30;;;;;;;3.22;2.92;;;;;;;;;;5045516;28;20056;-67
2023/04/06 06:40:56;;;;;;;3.20;2.90;;;;;;;;;;5045208;28;20094;-67
2023/04/06 06:43:22;;;;;;;4.82;3.58;;;;;;;;;;5046140;28;20036;-66
2023/04/06 06:45:48;;;;;;;3.95;3.55;;;;;;;;;;5043357;28;20037;-67
2023/04/06 06:48:14;;;;;;;3.25;2.90;;;;;;;;;;5045265;28;20044;-67
2023/04/06 06:50:40;;;;;;;3.30;2.92;;;;;;;;;;5044485;28;20096;-67
2023/04/06 06:53:06;;;;;;;5.78;4.00;;;;;;;;;;5045389;28;20186;-67
2023/04/06 06:55:32;;;;;;;5.07;3.92;;;;;;;;;;5044307;28;20124;-67
2023/04/06 06:57:58;;;;;;;4.95;4.43;;;;;;;;;;5045098;28;20186;-67
2023/04/06 07:00:24;;;;;;;8.52;4.68;;;;;;;;;;5042594;28;20046;-67
2023/04/06 07:02:50;;;;;;;5.45;3.65;;;;;;;;;;5039830;28;20976;-67
2023/04/06 07:05:16;;;;;;;4.75;4.20;;;;;;;;;;5045372;28;20439;-67
2023/04/06 07:07:42;;;;;;;6.38;4.68;;;;;;;;;;5045233;28;20499;-67
2023/04/06 07:10:08;;;;;;;7.25;5.75;;;;;;;;;;5042597;28;20047;-67
2023/04/06 07:12:34;;;;;;;5.28;4.78;;;;;;;;;;5042045;28;20118;-67
2023/04/06 07:15:01;;;;;;;6.95;4.95;;;;;;;;;;5043692;28;20072;-67
2023/04/06 07:17:27;;;;;;;6.50;5.05;;;;;;;;;;5042983;28;20045;-68
2023/04/06 07:19:53;;;;;;;5.72;5.13;;;;;;;;;;5045926;28;20037;-66
2023/04/06 07:22:19;;;;;;;5.72;5.13;;;;;;;;;;5045576;28;20099;-65
2023/04/06 07:24:45;;;;;;;5.15;4.65;;;;;;;;;;5042850;28;20116;-66
2023/04/06 07:27:11;;;;;;;4.45;4.03;;;;;;;;;;5041953;28;20426;-66
2023/04/06 07:29:37;;;;;;;6.35;4.80;;;;;;;;;;5043736;28;20049;-66
2023/04/06 07:32:03;;;;;;;6.18;4.10;;;;;;;;;;5044339;28;20128;-66
2023/04/06 07:34:30;;;;;;;6.32;5.05;;;;;;;;;;5043051;28;20406;-66
2023/04/06 07:36:56;;;;;;;7.95;6.18;;;;;;;;;;5043404;28;20049;-66
2023/04/06 07:39:22;;;;;;;6.22;5.63;;;;;;;;;;5041533;28;20136;-66
2023/04/06 07:41:48;;;;;;;6.93;5.57;;;;;;;;;;5039659;28;20112;-66
2023/04/06 07:44:14;;;;;;;6.78;5.50;;;;;;;;;;5044033;28;20044;-66
2023/04/06 07:46:40;;;;;;;7.28;5.68;;;;;;;;;;5044224;28;20048;-66
2023/04/06 07:49:06;;;;;;;8.45;5.40;;;;;;;;;;5043668;28;20045;-67
2023/04/06 07:51:32;;;;;;;7.18;6.25;;;;;;;;;;5043548;28;20053;-67
2023/04/06 07:53:58;;;;;;;6.07;4.85;;;;;;;;;;5043845;28;20114;-67
2023/04/06 07:56:25;;;;;;;5.93;4.88;;;;;;;;;;5039871;28;20051;-67
2023/04/06 07:58:51;;;;;;;6.05;5.45;;;;;;;;;;5031457;28;20042;-68
2023/04/06 08:01:17;;;;;;;7.15;5.50;;;;;;;;;;5044112;28;20045;-68
2023/04/06 08:03:42;;;;;;;6.47;5.85;;;;;;;;;;5045589;28;20048;-66
2023/04/06 08:06:09;;;;;;;6.90;5.82;;;;;;;;;;5044641;28;20053;-67
2023/04/06 08:08:35;;;;;;;6.05;4.63;;;;;;;;;;5045361;28;20127;-68
2023/04/06 08:11:02;;;;;;;6.60;5.38;;;;;;;;;;5045129;28;20136;-68
2023/04/06 08:13:28;;;;;;;6.97;5.95;;;;;;;;;;5043421;28;20053;-68
2023/04/06 08:15:54;;;;;;;6.15;5.45;;;;;;;;;;5045796;28;20051;-68
2023/04/06 08:18:20;;;;;;;5.85;5.13;;;;;;;;;;5044883;28;20083;-65
2023/04/06 08:20:46;;;;;;;9.10;5.65;;;;;;;;;;5044564;28;20056;-66
2023/04/06 08:23:13;;;;;;;7.15;6.03;;;;;;;;;;5045268;28;20048;-66
2023/04/06 08:25:38;;;;;;;7.60;5.82;;;;;;;;;;5045347;28;20051;-66
2023/04/06 08:28:05;;;;;;;8.80;6.47;;;;;;;;;;5042865;28;20052;-65
2023/04/06 08:30:31;;;;;;;7.78;5.32;;;;;;;;;;5039916;28;20106;-64
2023/04/06 08:32:57;;;;;;;6.32;5.72;;;;;;;;;;5041532;28;20049;-66
2023/04/06 08:35:23;;;;;;;6.72;5.72;;;;;;;;;;5043213;28;20131;-66
2023/04/06 08:37:49;;;;;;;7.72;6.30;;;;;;;;;;5044078;28;20052;-66
2023/04/06 08:40:15;;;;;;;6.53;5.00;;;;;;;;;;5044116;28;20087;-66
2023/04/06 08:42:44;;;;;;;7.30;5.75;;;;;;;;;;5044590;28;20657;-65
2023/04/06 08:45:11;;;;;;;7.80;6.47;;;;;;;;;;5040346;28;20135;-66
2023/04/06 08:47:37;;;;;;;6.45;5.80;;;;;;;;;;5041628;28;20048;-68
2023/04/06 08:50:06;;;;;;;5.72;4.93;;;;;;;;;;5043469;28;20069;-66
2023/04/06 08:52:33;;;;;;;5.82;4.80;;;;;;;;;;5041998;28;20053;-67
2023/04/06 08:54:59;;;;;;;7.50;5.78;;;;;;;;;;5031269;28;20159;-67
2023/04/06 08:57:27;;;;;;;6.60;6.00;;;;;;;;;;5045245;28;20454;-67
2023/04/06 08:59:53;;;;;;;6.20;5.53;;;;;;;;;;5044251;28;20502;-67
2023/04/06 09:02:19;;;;;;;6.70;5.97;;;;;;;;;;5039683;28;20483;-67
2023/04/06 09:04:50;;;;;;;7.45;6.57;;;;;;;;;;5036965;28;20081;-67
2023/04/06 09:07:16;;;;;;;8.90;6.20;;;;;;;;;;5037069;28;20107;-67
2023/04/06 09:09:47;;;;;;;6.30;5.68;;;;;;;;;;5037455;28;20041;-67
2023/04/06 09:12:23;;;;;;;9.00;7.25;;;;;;;;;;5035358;28;20048;-66
2023/04/06 09:14:49;;;;;;;9.05;6.50;;;;;;;;;;5041828;28;20056;-68
2023/04/06 09:17:22;;;;;;;6.90;6.28;;;;;;;;;;5038612;28;20052;-67
2023/04/06 09:19:49;;;;;;;8.38;7.03;;;;;;;;;;5041310;28;20072;-67
2023/04/06 09:22:15;;;;;;;11.00;6.43;;;;;;;;;;5043664;28;20041;-67
2023/04/06 09:24:43;;;;;;;7.35;6.50;;;;;;;;;;5041817;28;20807;-66
2023/04/06 09:27:09;;;;;;;7.65;6.32;;;;;;;;;;5050588;28;20045;-67
2023/04/06 09:29:36;;;;;;;6.57;5.90;;;;;;;;;;5042945;28;20045;-66
2023/04/06 09:32:03;;;;;;;7.65;6.95;;;;;;;;;;5046144;28;20415;-66
2023/04/06 09:34:29;;;;;;;8.73;6.65;;;;;;;;;;5045733;28;20451;-67
2023/04/06 09:36:55;;;;;;;8.98;7.22;;;;;;;;;;5036564;28;20172;-67
2023/04/06 09:39:25;;;;;;;9.50;7.70;;;;;;;;;;5027322;28;20504;-67
2023/04/06 09:41:52;;;;;;;11.35;8.43;;;;;;;;;;5026663;28;20240;-66
2023/04/06 09:44:18;;;;;;;9.88;8.25;;;;;;;;;;5027972;28;20048;-68
2023/04/06 09:46:45;;;;;;;10.27;8.40;;;;;;;;;;5028208;28;20056;-67
2023/04/06 09:49:12;;;;;;;11.70;8.70;;;;;;;;;;5046762;28;20044;-66
2023/04/06 09:51:39;;;;;;;9.68;7.78;;;;;;;;;;5046178;28;20060;-66
2023/04/06 09:54:06;;;;;;;10.73;8.93;;;;;;;;;;5047946;28;20075;-63
2023/04/06 09:56:45;;;;;;;13.45;9.93;;;;;;;;;;5047880;28;20061;-67
2023/04/06 09:59:30;;;;;;;11.25;8.85;;;;;;;;;;5027267;28;20128;-67
2023/04/06 10:01:59;;;;;;;11.20;9.88;;;;;;;;;;5029160;28;20053;-67
2023/04/06 10:04:37;;;;;;;11.75;9.20;;;;;;;;;;5047784;28;20092;-67
2023/04/06 10:07:03;;;;;;;12.20;8.82;;;;;;;;;;5047394;28;20037;-67
2023/04/06 10:09:35;;;;;;;11.90;9.05;;;;;;;;;;5046312;28;20045;-67
2023/04/06 10:12:08;;;;;;;10.00;8.75;;;;;;;;;;5045672;28;20521;-68
2023/04/06 10:14:37;;;;;;;10.30;9.02;;;;;;;;;;5047850;28;20458;-67
2023/04/06 10:17:06;;;;;;;11.50;8.65;;;;;;;;;;5046371;28;20045;-68
2023/04/06 10:19:41;;;;;;;10.40;7.70;;;;;;;;;;5028919;28;20041;-68
2023/04/06 10:22:10;;;;;;;11.52;9.30;;;;;;;;;;5027669;28;20045;-69
2023/04/06 10:24:36;;;;;;;15.57;9.38;;;;;;;;;;5027733;28;20498;-68
2023/04/06 10:27:02;;;;;;;11.25;9.45;;;;;;;;;;5026824;28;20045;-68
2023/04/06 10:29:28;;;;;;;11.70;9.38;;;;;;;;;;5027627;28;20049;-68
2023/04/06 10:31:55;;;;;;;11.18;9.05;;;;;;;;;;5028967;28;20084;-68
2023/04/06 10:34:21;;;;;;;14.13;10.75;;;;;;;;;;5047510;28;20049;-68
2023/04/06 10:36:53;;;;;;;16.00;11.32;;;;;;;;;;5046636;28;20575;-67
2023/04/06 10:39:25;;;;;;;13.80;10.77;;;;;;;;;;5046480;28;20041;-67
2023/04/06 10:41:52;;;;;;;14.95;11.80;;;;;;;;;;5045294;28;20300;-70
2023/04/06 10:44:21;;;;;;;15.15;10.93;;;;;;;;;;5045048;28;20403;-67
2023/04/06 10:46:54;;;;;;;16.85;12.70;;;;;;;;;;5040754;28;20119;-67
2023/04/06 10:49:20;;;;;;;15.23;11.80;;;;;;;;;;5028797;28;20071;-68
2023/04/06 10:51:51;;;;;;;15.88;12.55;;;;;;;;;;5045380;28;20073;-68
2023/04/06 10:54:17;;;;;;;17.05;14.02;;;;;;;;;;5045114;28;20052;-68
2023/04/06 10:56:43;;;;;;;18.50;14.82;;;;;;;;;;5045735;28;20052;-68
2023/04/06 10:59:09;;;;;;;16.33;13.20;;;;;;;;;;5027130;28;20399;-67
2023/04/06 11:01:35;;;;;;;20.17;15.55;;;;;;;;;;5044423;28;20128;-67
2023/04/06 11:04:02;;;;;;;19.13;14.00;;;;;;;;;;5045747;28;20488;-68
2023/04/06 11:06:30;;;;;;;20.35;15.52;;;;;;;;;;5046473;28;20522;-68
2023/04/06 11:08:57;;;;;;;20.75;15.70;;;;;;;;;;5045097;28;20071;-68
2023/04/06 11:11:26;;;;;;;23.42;18.17;;;;;;;;;;5047158;28;20045;-77
2023/04/06 11:13:52;;;;;;;19.77;15.63;;;;;;;;;;5046385;28;20395;-68
2023/04/06 11:16:24;;;;;;;19.50;14.52;;;;;;;;;;5044609;28;20045;-66
2023/04/06 11:18:51;;;;;;;20.90;15.68;;;;;;;;;;5043450;28;20485;-66
2023/04/06 11:21:17;;;;;;;24.85;18.80;;;;;;;;;;5046021;28;20105;-66
2023/04/06 11:23:46;;;;;;;22.50;18.08;;;;;;;;;;5044628;28;20041;-66
2023/04/06 11:26:13;;;;;;;23.55;18.90;;;;;;;;;;5046321;28;20052;-66
2023/04/06 11:28:40;;;;;;;27.02;20.05;;;;;;;;;;5043351;28;20068;-67
2023/04/06 11:31:06;;;;;;;27.63;19.13;;;;;;;;;;5042221;28;20053;-66
2023/04/06 11:33:37;;;;;;;29.33;21.73;;;;;;;;;;5045021;28;20056;-66
2023/04/06 11:36:03;;;;;;;27.63;20.83;;;;;;;;;;5044312;28;20194;-67
2023/04/06 11:38:30;;;;;;;28.50;20.55;;;;;;;;;;5042226;28;20051;-66
2023/04/06 11:40:56;;;;;;;24.58;18.75;;;;;;;;;;5040030;28;20444;-67
2023/04/06 11:43:30;;;;;;;23.08;19.25;;;;;;;;;;5044909;28;20546;-66
2023/04/06 11:46:03;;;;;;;21.75;17.20;;;;;;;;;;5030660;28;20041;-66
2023/04/06 11:48:29;;;;;;;22.27;17.83;;;;;;;;;;5029804;28;20044;-67
2023/04/06 11:51:00;;;;;;;24.55;18.60;;;;;;;;;;5039787;28;20047;-66
2023/04/06 11:53:27;;;;;;;25.50;19.80;;;;;;;;;;5025435;28;20053;-66
2023/04/06 11:55:53;;;;;;;22.83;17.38;;;;;;;;;;5036277;28;20056;-67
2023/04/06 11:58:19;;;;;;;21.02;16.95;;;;;;;;;;5045564;28;20719;-66
2023/04/06 12:00:45;;;;;;;23.27;17.27;;;;;;;;;;5045826;28;20037;-66
2023/04/06 12:03:14;;;;;;;21.73;17.58;;;;;;;;;;5043683;28;20052;-67
2023/04/06 12:05:40;;;;;;;23.00;17.20;;;;;;;;;;5035650;28;20124;-66
2023/04/06 12:08:06;;;;;;;22.23;16.98;;;;;;;;;;5025228;28;20549;-66
2023/04/06 12:10:32;;;;;;;23.92;17.73;;;;;;;;;;5025429;28;20080;-66
2023/04/06 12:12:58;;;;;;;19.90;16.73;;;;;;;;;;5034148;28;20149;-66
2023/04/06 12:15:24;;;;;;;23.02;18.33;;;;;;;;;;5035249;28;20486;-67
2023/04/06 12:17:50;;;;;;;20.55;16.60;;;;;;;;;;5044160;28;20053;-66
2023/04/06 12:20:16;;;;;;;23.80;18.17;;;;;;;;;;5023044;28;20538;-66
2023/04/06 12:22:42;;;;;;;19.73;16.17;;;;;;;;;;5025244;28;20068;-66
2023/04/06 12:25:09;;;;;;;20.13;15.75;;;;;;;;;;5026644;28;20041;-66
2023/04/06 12:27:35;;;;;;;20.85;16.77;;;;;;;;;;5043623;28;20049;-67
2023/04/06 12:30:01;;;;;;;21.63;17.23;;;;;;;;;;5043019;28;20134;-67
2023/04/06 12:32:27;;;;;;;22.50;16.80;;;;;;;;;;5044422;28;20296;-67
2023/04/06 12:34:53;;;;;;;20.92;16.55;;;;;;;;;;5043919;28;20049;-66
2023/04/06 12:37:20;;;;;;;21.23;16.50;;;;;;;;;;5024759;28;20115;-66
2023/04/06 12:39:46;;;;;;;24.40;18.98;;;;;;;;;;5023810;28;20045;-67
2023/04/06 12:42:13;;;;;;;24.83;18.05;;;;;;;;;;5025057;28;20503;-66
2023/04/06 12:44:39;;;;;;;25.42;16.90;;;;;;;;;;5035378;28;20053;-67
2023/04/06 12:47:07;;;;;;;25.10;18.60;;;;;;;;;;5043400;28;20051;-66
2023/04/06 12:49:33;;;;;;;22.58;17.33;;;;;;;;;;5044076;28;20411;-66
2023/04/06 12:51:59;;;;;;;19.75;16.20;;;;;;;;;;5044194;28;20544;-67
2023/04/06 12:54:26;;;;;;;23.52;17.35;;;;;;;;;;5043963;28;20051;-66
2023/04/06 12:56:52;;;;;;;20.35;16.63;;;;;;;;;;5044720;28;20761;-66
2023/04/06 12:59:18;;;;;;;19.27;15.45;;;;;;;;;;5043323;28;20131;-66
2023/04/06 13:01:45;;;;;;;21.30;16.23;;;;;;;;;;5042278;28;20092;-66
2023/04/06 13:04:11;;;;;;;19.23;17.15;;;;;;;;;;5044765;28;20045;-67
2023/04/06 13:06:37;;;;;;;20.50;17.05;;;;;;;;;;5029481;28;20060;-66
2023/04/06 13:09:05;;;;;;;23.35;17.02;;;;;;;;;;5042936;28;20049;-66
2023/04/06 13:11:31;;;;;;;23.30;17.38;;;;;;;;;;5039094;28;20079;-67
2023/04/06 13:13:57;;;;;;;17.23;14.38;;;;;;;;;;5036559;28;20045;-67
2023/04/06 13:16:23;;;;;;;15.90;13.10;;;;;;;;;;5025183;28;20087;-66
2023/04/06 13:18:50;;;;;;;20.92;15.15;;;;;;;;;;5023968;28;20053;-66
2023/04/06 13:21:16;;;;;;;20.75;16.85;;;;;;;;;;5035677;28;20040;-66
2023/04/06 13:23:43;;;;;;;22.50;17.70;;;;;;;;;;5037095;28;20052;-67
2023/04/06 13:26:09;;;;;;;21.67;16.55;;;;;;;;;;5033988;28;20033;-66
2023/04/06 13:28:37;;;;;;;18.40;13.93;;;;;;;;;;5026170;28;20499;-66
2023/04/06 13:31:03;;;;;;;20.80;16.17;;;;;;;;;;5042682;28;20110;-66
2023/04/06 13:33:30;;;;;;;18.25;14.48;;;;;;;;;;5041706;28;20045;-67
2023/04/06 13:35:56;;;;;;;19.83;14.55;;;;;;;;;;5039161;28;20077;-66
2023/04/06 13:38:24;;;;;;;15.02;12.45;;;;;;;;;;5040859;28;20041;-66
2023/04/06 13:40:50;;;;;;;13.25;11.68;;;;;;;;;;5042712;28;20052;-67
2023/04/06 13:43:18;;;;;;;13.13;10.35;;;;;;;;;;5042210;28;20119;-65
2023/04/06 13:45:48;;;;;;;15.23;9.90;;;;;;;;;;5030419;28;20151;-65
2023/04/06 13:48:14;;;;;;;11.82;10.18;;;;;;;;;;5039791;28;20491;-65
2023/04/06 13:50:40;;;;;;;12.82;9.88;;;;;;;;;;5040107;28;20057;-65
2023/04/06 13:53:06;;;;;;;10.65;9.05;;;;;;;;;;5041983;28;20052;-65
2023/04/06 13:55:32;;;;;;;9.40;6.93;;;;;;;;;;5042246;28;20053;-65
2023/04/06 13:57:58;;;;;;;8.80;6.40;;;;;;;;;;5041806;28;20048;-65
2023/04/06 14:00:25;;;;;;;10.23;8.52;;;;;;;;;;5037967;28;20053;-65
2023/04/06 14:02:51;;;;;;;9.93;7.72;;;;;;;;;;5037560;28;20479;-65
2023/04/06 14:05:17;;;;;;;9.25;7.13;;;;;;;;;;5034441;28;20539;-65
2023/04/06 14:07:43;;;;;;;13.98;8.52;;;;;;;;;;5034763;28;20044;-65
2023/04/06 14:10:13;;;;;;;8.00;7.20;;;;;;;;;;5035026;28;20578;-66
2023/04/06 14:12:40;;;;;;;12.18;8.98;;;;;;;;;;5038179;28;20188;-65
2023/04/06 14:15:06;;;;;;;11.25;8.60;;;;;;;;;;5037741;28;20041;-65
2023/04/06 14:17:32;;;;;;;13.02;10.88;;;;;;;;;;5040068;28;20053;-65
2023/04/06 14:19:58;;;;;;;14.95;11.77;;;;;;;;;;5037529;28;20091;-65
2023/04/06 14:22:24;;;;;;;11.82;9.52;;;;;;;;;;5040555;28;20049;-65
2023/04/06 14:24:50;;;;;;;10.40;9.25;;;;;;;;;;5036426;28;20464;-65
2023/04/06 14:27:16;;;;;;;9.88;8.85;;;;;;;;;;5039434;28;20053;-65
2023/04/06 14:29:42;;;;;;;10.25;9.07;;;;;;;;;;5044609;28;20064;-65
2023/04/06 14:32:08;;;;;;;11.35;9.43;;;;;;;;;;5045388;28;20186;-65